createdAt,value
2018-05-16T00:00:00.838Z,12.50
2018-05-16T00:02:29.086Z,11.17
2018-05-16T00:04:57.369Z,11.70
2018-05-16T00:07:25.848Z,11.90
2018-05-16T00:09:54.098Z,12.67
2018-05-16T00:12:22.530Z,10.83
2018-05-16T00:14:50.797Z,12.57
2018-05-16T00:17:19.073Z,12.57
2018-05-16T00:19:47.357Z,12.37
2018-05-16T00:22:15.655Z,12.90
2018-05-16T00:24:43.949Z,12.00
2018-05-16T00:27:12.981Z,14.03
2018-05-16T00:29:41.268Z,11.70
2018-05-16T00:32:09.535Z,14.10
2018-05-16T00:34:37.902Z,13.73
2018-05-16T00:37:06.294Z,14.17
2018-05-16T00:39:34.564Z,13.17
2018-05-16T00:42:02.850Z,13.50
2018-05-16T00:44:31.125Z,14.43
2018-05-16T00:46:59.417Z,13.43
2018-05-16T00:49:27.871Z,12.77
2018-05-16T00:51:56.157Z,13.90
2018-05-16T00:54:24.477Z,14.20
2018-05-16T00:56:52.878Z,15.07
2018-05-16T00:59:21.382Z,12.83
2018-05-16T01:01:49.713Z,14.13
2018-05-16T01:04:18.760Z,14.73
2018-05-16T01:06:47.033Z,15.97
2018-05-16T01:09:15.306Z,15.27
2018-05-16T01:11:43.614Z,16.00
2018-05-16T01:14:11.893Z,16.73
2018-05-16T01:16:40.937Z,15.03
2018-05-16T01:19:09.218Z,14.37
2018-05-16T01:21:37.498Z,16.73
2018-05-16T01:24:05.765Z,17.10
2018-05-16T01:26:34.054Z,16.37
2018-05-16T01:29:02.330Z,15.73
2018-05-16T01:31:30.627Z,16.30
2018-05-16T01:33:58.899Z,14.77
2018-05-16T01:36:27.240Z,14.93
2018-05-16T01:38:55.671Z,17.63
2018-05-16T01:41:24.734Z,15.87
2018-05-16T01:43:53.032Z,14.97
2018-05-16T01:46:21.293Z,15.30
2018-05-16T01:49:01.615Z,16.97
2018-05-16T01:51:29.853Z,16.87
2018-05-16T01:53:58.922Z,16.37
2018-05-16T01:56:27.201Z,17.23
2018-05-16T01:58:55.472Z,16.57
2018-05-16T02:01:23.727Z,17.73
2018-05-16T02:03:52.031Z,16.00
2018-05-16T02:06:20.293Z,16.37
2018-05-16T02:08:48.692Z,17.17
2018-05-16T02:11:17.011Z,15.23
2018-05-16T02:13:45.277Z,16.87
2018-05-16T02:16:13.546Z,16.20
2018-05-16T02:18:41.828Z,18.70
2018-05-16T02:21:10.338Z,16.70
2018-05-16T02:23:38.620Z,17.60
2018-05-16T02:26:06.904Z,15.80
2018-05-16T02:28:35.219Z,15.90
2018-05-16T02:31:03.507Z,15.93
2018-05-16T02:33:31.887Z,14.40
2018-05-16T02:36:00.181Z,13.50
2018-05-16T02:38:28.547Z,14.07
2018-05-16T02:40:57.034Z,13.53
2018-05-16T02:43:25.334Z,12.37
2018-05-16T02:45:53.717Z,13.53
2018-05-16T02:48:22.130Z,12.30
2018-05-16T02:50:51.148Z,11.80
2018-05-16T02:53:19.429Z,13.13
2018-05-16T02:55:47.734Z,11.20
2018-05-16T02:58:16.172Z,11.70
2018-05-16T03:00:44.853Z,11.10
2018-05-16T03:03:13.131Z,12.27
2018-05-16T03:05:41.620Z,10.00
2018-05-16T03:08:09.910Z,11.07
2018-05-16T03:10:38.172Z,11.53
2018-05-16T03:13:06.454Z,9.50
2018-05-16T03:15:34.726Z,11.80
2018-05-16T03:18:02.988Z,11.67
2018-05-16T03:20:31.253Z,12.20
2018-05-16T03:22:59.525Z,11.43
2018-05-16T03:25:27.861Z,12.83
2018-05-16T03:27:56.164Z,13.70
2018-05-16T03:30:24.493Z,13.07
2018-05-16T03:32:52.761Z,10.73
2018-05-16T03:35:21.037Z,11.60
2018-05-16T03:37:49.306Z,11.93
2018-05-16T03:40:17.604Z,11.27
2018-05-16T03:42:45.963Z,12.00
2018-05-16T03:45:14.249Z,11.57
2018-05-16T03:47:43.365Z,11.93
2018-05-16T03:50:12.422Z,10.30
2018-05-16T03:52:40.726Z,11.43
2018-05-16T03:55:09.787Z,12.03
2018-05-16T03:57:50.041Z,12.53
2018-05-16T04:03:35.060Z,12.93
2018-05-16T04:06:03.399Z,12.50
2018-05-16T04:08:31.688Z,12.23
2018-05-16T04:11:00.027Z,12.27
2018-05-16T04:13:28.313Z,12.47
2018-05-16T04:15:56.568Z,12.50
2018-05-16T04:18:25.642Z,11.83
2018-05-16T04:20:53.893Z,11.37
2018-05-16T04:23:22.162Z,11.93
2018-05-16T04:25:50.450Z,12.60
2018-05-16T04:28:18.738Z,11.63
2018-05-16T04:30:46.998Z,11.67
2018-05-16T04:33:15.272Z,11.47
2018-05-16T04:35:43.603Z,11.50
2018-05-16T04:38:11.982Z,11.03
2018-05-16T04:40:40.317Z,11.33
2018-05-16T04:43:08.617Z,12.13
2018-05-16T04:45:36.868Z,11.77
2018-05-16T04:48:06.063Z,11.90
2018-05-16T04:50:34.325Z,11.37
2018-05-16T04:53:02.646Z,11.27
2018-05-16T04:55:30.900Z,11.20
2018-05-16T04:57:59.934Z,10.63
2018-05-16T05:00:28.226Z,12.20
2018-05-16T05:02:56.491Z,11.40
2018-05-16T05:05:24.774Z,11.17
2018-05-16T05:07:53.038Z,11.00
2018-05-16T05:10:21.327Z,11.30
2018-05-16T05:12:49.594Z,11.47
2018-05-16T05:15:17.878Z,11.03
2018-05-16T05:17:46.438Z,11.37
2018-05-16T05:20:14.786Z,10.13
2018-05-16T05:22:43.822Z,11.07
2018-05-16T05:25:12.110Z,11.70
2018-05-16T05:27:40.435Z,12.70
2018-05-16T05:30:09.470Z,15.73
2018-05-16T05:32:37.771Z,14.40
2018-05-16T05:35:06.082Z,13.93
2018-05-16T05:37:35.126Z,14.77
2018-05-16T05:40:03.390Z,12.70
2018-05-16T05:42:31.659Z,11.93
2018-05-16T05:45:00.102Z,13.57
2018-05-16T05:47:28.373Z,14.17
2018-05-16T05:49:57.413Z,13.93
2018-05-16T05:52:25.694Z,14.73
2018-05-16T05:54:53.979Z,15.03
2018-05-16T05:57:22.259Z,15.70
2018-05-16T05:59:50.525Z,11.17
2018-05-16T06:02:18.824Z,11.03
2018-05-16T06:04:47.091Z,11.07
2018-05-16T06:07:15.363Z,10.27
2018-05-16T06:09:43.655Z,10.67
2018-05-16T06:12:11.967Z,10.17
2018-05-16T06:14:40.250Z,9.57
2018-05-16T06:17:08.518Z,9.70
2018-05-16T06:19:36.787Z,10.37
2018-05-16T06:22:05.046Z,11.87
2018-05-16T06:24:34.073Z,10.13
2018-05-16T06:27:02.451Z,10.23
2018-05-16T06:29:30.640Z,9.33
2018-05-16T06:31:58.898Z,15.67
2018-05-16T06:34:27.161Z,12.20
2018-05-16T06:36:55.686Z,10.87
2018-05-16T06:39:23.968Z,11.27
2018-05-16T06:41:52.264Z,11.33
2018-05-16T06:44:20.528Z,9.93
2018-05-16T06:46:48.780Z,11.27
2018-05-16T06:49:17.058Z,9.53
2018-05-16T06:51:45.320Z,10.37
2018-05-16T06:54:13.596Z,11.43
2018-05-16T06:56:41.906Z,11.30
2018-05-16T06:59:10.208Z,11.60
2018-05-16T07:01:38.487Z,10.20
2018-05-16T07:04:06.964Z,11.20
2018-05-16T07:06:35.984Z,12.67
2018-05-16T07:09:05.191Z,10.63
2018-05-16T07:11:33.471Z,12.63
2018-05-16T07:14:01.847Z,10.13
2018-05-16T07:16:30.105Z,10.63
2018-05-16T07:18:58.386Z,12.83
2018-05-16T07:21:26.666Z,13.60
2018-05-16T07:23:54.987Z,14.47
2018-05-16T07:26:24.026Z,14.10
2018-05-16T07:28:52.330Z,15.03
2018-05-16T07:31:20.638Z,12.83
2018-05-16T07:33:49.727Z,12.97
2018-05-16T07:36:18.907Z,11.50
2018-05-16T07:38:47.176Z,10.87
2018-05-16T07:41:16.969Z,11.23
2018-05-16T07:43:45.226Z,13.40
2018-05-16T07:46:13.533Z,12.57
2018-05-16T07:48:41.822Z,12.90
2018-05-16T07:51:10.941Z,11.80
2018-05-16T07:53:39.987Z,12.40
2018-05-16T07:56:08.326Z,11.37
2018-05-16T07:58:36.623Z,11.77
2018-05-16T08:01:04.889Z,12.27
2018-05-16T08:03:33.174Z,9.50
2018-05-16T08:06:01.460Z,9.80
2018-05-16T08:08:29.726Z,8.90
2018-05-16T08:10:58.093Z,10.77
2018-05-16T08:13:26.370Z,10.67
2018-05-16T08:15:54.791Z,10.17
2018-05-16T08:18:23.844Z,8.00
2018-05-16T08:20:52.137Z,11.60
2018-05-16T08:23:20.415Z,11.57
2018-05-16T08:25:48.690Z,8.27
2018-05-16T08:28:16.993Z,7.60
2018-05-16T08:30:46.040Z,11.33
2018-05-16T08:33:14.339Z,11.20
2018-05-16T08:35:42.615Z,11.57
2018-05-16T08:38:10.965Z,9.50
2018-05-16T08:40:39.229Z,10.13
2018-05-16T08:43:07.545Z,9.60
2018-05-16T08:45:35.764Z,8.77
2018-05-16T08:48:04.044Z,9.73
2018-05-16T08:50:32.353Z,11.77
2018-05-16T08:53:00.632Z,9.60
2018-05-16T08:55:28.902Z,9.93
2018-05-16T08:57:57.203Z,12.05
2018-05-16T09:00:26.966Z,12.17
2018-05-16T09:02:55.250Z,10.80
2018-05-16T09:05:23.573Z,11.27
2018-05-16T09:07:52.683Z,12.50
2018-05-16T09:10:21.708Z,11.43
2018-05-16T09:12:50.148Z,11.47
2018-05-16T09:15:18.534Z,10.90
2018-05-16T09:17:46.799Z,10.77
2018-05-16T09:20:15.846Z,12.30
2018-05-16T09:22:44.136Z,13.57
2018-05-16T09:25:12.514Z,10.10
2018-05-16T09:27:40.771Z,11.37
2018-05-16T09:30:09.017Z,12.10
2018-05-16T09:32:37.269Z,11.87
2018-05-16T09:35:06.488Z,11.57
2018-05-16T09:37:34.763Z,11.80
2018-05-16T09:40:03.041Z,10.83
2018-05-16T09:42:31.357Z,11.63
2018-05-16T09:44:59.734Z,12.37
2018-05-16T09:47:27.986Z,10.67
2018-05-16T09:49:56.255Z,8.20
2018-05-16T09:52:24.545Z,11.10
2018-05-16T09:54:52.823Z,11.40
2018-05-16T09:57:21.117Z,11.93
2018-05-16T09:59:49.378Z,10.93
2018-05-16T10:02:17.654Z,10.60
2018-05-16T10:04:45.925Z,12.10
2018-05-16T10:07:14.222Z,12.13
2018-05-16T10:09:42.590Z,13.07
2018-05-16T10:12:10.950Z,13.47
2018-05-16T10:14:39.211Z,10.73
2018-05-16T10:17:07.932Z,13.60
2018-05-16T10:19:36.197Z,12.63
2018-05-16T10:22:04.476Z,10.87
2018-05-16T10:24:32.756Z,12.60
2018-05-16T10:27:01.079Z,13.23
2018-05-16T10:29:29.341Z,10.63
2018-05-16T10:31:58.382Z,12.30
2018-05-16T10:34:26.678Z,11.80
2018-05-16T10:36:54.991Z,11.67
2018-05-16T10:39:23.276Z,11.33
2018-05-16T10:41:51.567Z,10.30
2018-05-16T10:44:19.853Z,9.30
2018-05-16T10:46:48.101Z,8.50
2018-05-16T10:49:16.453Z,9.23
2018-05-16T10:51:44.962Z,7.87
2018-05-16T10:54:13.242Z,9.07
2018-05-16T10:56:41.506Z,10.27
2018-05-16T10:59:09.807Z,9.10
2018-05-16T11:01:38.212Z,9.73
2018-05-16T11:04:06.569Z,8.80
2018-05-16T11:06:34.813Z,8.17
2018-05-16T11:09:03.073Z,8.83
2018-05-16T11:11:32.199Z,7.47
2018-05-16T11:14:00.660Z,7.20
2018-05-16T11:16:29.070Z,7.33
2018-05-16T11:18:57.330Z,8.00
2018-05-16T11:21:25.621Z,7.43
2018-05-16T11:23:53.892Z,7.30
2018-05-16T11:26:22.154Z,7.13
2018-05-16T11:28:50.442Z,7.00
2018-05-16T11:31:18.713Z,7.63
2018-05-16T11:33:46.963Z,8.30
2018-05-16T11:36:15.248Z,7.77
2018-05-16T11:38:43.494Z,7.63
2018-05-16T11:41:12.535Z,7.00
2018-05-16T11:43:40.782Z,8.00
2018-05-16T11:46:09.163Z,6.10
2018-05-16T11:48:38.310Z,7.67
2018-05-16T11:51:07.473Z,8.00
2018-05-16T11:53:35.850Z,6.47
2018-05-16T11:56:04.105Z,7.10
2018-05-16T11:58:32.442Z,6.57
2018-05-16T12:01:00.738Z,6.80
2018-05-16T12:03:29.764Z,7.30
2018-05-16T12:05:58.079Z,8.03
2018-05-16T12:08:27.124Z,7.90
2018-05-16T12:10:55.403Z,7.70
2018-05-16T12:13:23.786Z,7.27
2018-05-16T12:15:52.120Z,7.33
2018-05-16T12:18:20.337Z,6.90
2018-05-16T12:20:48.612Z,6.77
2018-05-16T12:23:16.871Z,6.60
2018-05-16T12:25:45.171Z,7.07
2018-05-16T12:28:13.601Z,6.57
2018-05-16T12:30:41.889Z,6.00
2018-05-16T12:33:10.934Z,5.90
2018-05-16T12:35:40.733Z,6.83
2018-05-16T12:38:09.005Z,6.53
2018-05-16T12:40:37.341Z,6.43
2018-05-16T12:43:16.198Z,6.90
2018-05-16T12:45:44.529Z,6.60
2018-05-16T12:48:12.779Z,7.27
2018-05-16T12:50:41.021Z,7.57
2018-05-16T12:53:09.406Z,6.23
2018-05-16T12:55:37.731Z,7.10
2018-05-16T12:58:05.962Z,6.50
2018-05-16T13:00:34.226Z,6.07
2018-05-16T13:03:02.536Z,5.73
2018-05-16T13:05:30.789Z,5.50
2018-05-16T13:07:59.083Z,5.90
2018-05-16T13:10:28.879Z,6.70
2018-05-16T13:12:57.225Z,5.70
2018-05-16T13:15:25.537Z,6.00
2018-05-16T13:17:53.809Z,6.20
2018-05-16T13:20:22.062Z,6.87
2018-05-16T13:22:50.304Z,6.17
2018-05-16T13:25:18.581Z,6.00
2018-05-16T13:27:47.631Z,7.07
2018-05-16T13:30:15.959Z,6.67
2018-05-16T13:32:44.995Z,7.07
2018-05-16T13:35:13.459Z,6.87
2018-05-16T13:37:41.753Z,6.27
2018-05-16T13:40:10.019Z,6.37
2018-05-16T13:42:38.295Z,6.40
2018-05-16T13:45:06.554Z,6.30
2018-05-16T13:47:34.844Z,6.10
2018-05-16T13:50:03.112Z,5.87
2018-05-16T13:52:31.375Z,5.83
2018-05-16T13:54:59.646Z,5.77
2018-05-16T13:57:27.985Z,5.50
2018-05-16T13:59:56.394Z,5.63
2018-05-16T14:02:24.658Z,5.60
2018-05-16T14:04:52.920Z,6.00
2018-05-16T14:07:21.963Z,5.47
2018-05-16T14:09:50.289Z,6.60
2018-05-16T14:12:19.340Z,6.30
2018-05-16T14:14:47.637Z,5.47
2018-05-16T14:17:15.986Z,6.17
2018-05-16T14:19:44.247Z,5.80
2018-05-16T14:22:12.540Z,5.60
2018-05-16T14:24:40.804Z,6.00
2018-05-16T14:27:09.070Z,6.97
2018-05-16T14:29:37.359Z,6.33
2018-05-16T14:32:05.618Z,5.43
2018-05-16T14:34:33.883Z,8.13
2018-05-16T14:37:02.259Z,6.93
2018-05-16T14:39:30.644Z,7.70
2018-05-16T14:41:58.895Z,8.83
2018-05-16T14:44:28.850Z,8.20
2018-05-16T14:46:57.161Z,6.60
2018-05-16T14:49:25.462Z,11.27
2018-05-16T14:51:54.486Z,11.33
2018-05-16T14:54:22.821Z,10.83
2018-05-16T14:56:51.139Z,10.67
2018-05-16T14:59:19.414Z,11.23
2018-05-16T15:01:47.809Z,11.40
2018-05-16T15:04:16.014Z,10.43
2018-05-16T15:06:45.095Z,10.57
2018-05-16T15:09:14.141Z,7.87
2018-05-16T15:11:42.688Z,12.47
2018-05-16T15:14:11.730Z,12.87
2018-05-16T15:16:40.024Z,15.53
2018-05-16T15:19:08.299Z,19.40
2018-05-16T15:21:37.412Z,16.17
2018-05-16T15:24:05.665Z,14.53
2018-05-16T15:26:33.974Z,13.57
2018-05-16T15:29:03.008Z,13.73
2018-05-16T15:31:31.288Z,16.40
2018-05-16T15:33:59.573Z,7.70
2018-05-16T15:36:28.042Z,13.73
2018-05-16T15:38:56.290Z,14.60
2018-05-16T15:41:25.342Z,20.20
2018-05-16T15:43:54.501Z,20.43
2018-05-16T15:46:22.915Z,16.17
2018-05-16T15:48:51.244Z,16.90
2018-05-16T15:51:19.591Z,18.70
2018-05-16T15:53:49.383Z,17.67
2018-05-16T15:56:18.473Z,15.33
2018-05-16T15:58:46.786Z,13.33
2018-05-16T16:01:15.198Z,17.93
2018-05-16T16:03:44.310Z,12.63
2018-05-16T16:06:12.622Z,15.20
2018-05-16T16:08:41.663Z,16.13
2018-05-16T16:11:09.942Z,16.17
2018-05-16T16:13:38.242Z,14.70
2018-05-16T16:16:06.531Z,12.83
2018-05-16T16:18:35.638Z,13.53
2018-05-16T16:21:04.691Z,12.97
2018-05-16T16:23:32.983Z,11.30
2018-05-16T16:26:02.184Z,13.30
2018-05-16T16:28:32.068Z,12.10
2018-05-16T16:31:00.333Z,11.73
2018-05-16T16:33:28.634Z,13.85
2018-05-16T16:35:56.912Z,12.77
2018-05-16T16:38:25.200Z,14.03
2018-05-16T16:40:53.497Z,12.93
2018-05-16T16:43:21.928Z,13.67
2018-05-16T16:45:50.198Z,14.53
2018-05-16T16:48:18.491Z,13.43
2018-05-16T16:50:46.777Z,12.33
2018-05-16T16:53:15.543Z,12.90
2018-05-16T16:55:43.835Z,10.80
2018-05-16T16:58:13.617Z,11.77
2018-05-16T17:00:41.903Z,11.47
2018-05-16T17:03:10.192Z,9.33
2018-05-16T17:05:38.486Z,12.43
2018-05-16T17:08:07.572Z,11.57
2018-05-16T17:10:35.857Z,10.83
2018-05-16T17:13:05.041Z,12.73
2018-05-16T17:15:33.340Z,16.10
2018-05-16T17:18:01.625Z,19.07
2018-05-16T17:20:29.941Z,16.33
2018-05-16T17:22:58.208Z,16.90
2018-05-16T17:25:26.501Z,12.20
2018-05-16T17:27:54.771Z,15.70
2018-05-16T17:30:23.149Z,12.87
2018-05-16T17:32:52.123Z,13.47
2018-05-16T17:35:20.479Z,14.60
2018-05-16T17:37:48.779Z,12.47
2018-05-16T17:40:17.045Z,13.87
2018-05-16T17:42:45.354Z,14.37
2018-05-16T17:45:15.047Z,11.80
2018-05-16T17:47:43.394Z,11.90
2018-05-16T17:50:11.677Z,12.90
2018-05-16T17:52:40.039Z,12.30
2018-05-16T17:55:08.395Z,12.03
2018-05-16T17:57:36.734Z,10.80
2018-05-16T18:00:05.014Z,11.93
2018-05-16T18:02:33.328Z,11.47
2018-05-16T18:05:02.358Z,11.70
2018-05-16T18:07:30.663Z,11.93
2018-05-16T18:09:59.010Z,11.07
2018-05-16T18:12:27.436Z,10.47
2018-05-16T18:15:21.083Z,10.30
2018-05-16T18:17:50.337Z,10.80
2018-05-16T18:20:18.646Z,11.23
2018-05-16T18:22:47.054Z,10.50
2018-05-16T18:25:15.743Z,10.50
2018-05-16T18:27:44.059Z,9.57
2018-05-16T18:30:12.459Z,10.17
2018-05-16T18:32:40.732Z,9.75
2018-05-16T18:35:09.025Z,9.40
2018-05-16T18:37:37.306Z,8.40
2018-05-16T18:40:05.605Z,8.47
2018-05-16T18:42:33.952Z,9.03
2018-05-16T18:45:02.164Z,8.53
2018-05-16T18:47:31.237Z,8.17
2018-05-16T18:49:59.543Z,8.13
2018-05-16T18:52:28.627Z,7.40
2018-05-16T18:54:56.920Z,7.30
2018-05-16T18:57:25.197Z,7.43
2018-05-16T18:59:53.523Z,6.77
2018-05-16T19:02:21.813Z,6.70
2018-05-16T19:04:50.233Z,7.17
2018-05-16T19:07:18.548Z,6.60
2018-05-16T19:09:46.805Z,6.93
2018-05-16T19:12:15.148Z,7.63
2018-05-16T19:14:44.219Z,7.03
2018-05-16T19:17:13.269Z,6.53
2018-05-16T19:19:41.544Z,6.20
2018-05-16T19:22:09.835Z,6.90
2018-05-16T19:24:38.098Z,6.20
2018-05-16T19:27:06.557Z,6.13
2018-05-16T19:29:34.850Z,5.83
2018-05-16T19:32:03.117Z,7.07
2018-05-16T19:34:31.401Z,7.50
2018-05-16T19:36:59.670Z,6.90
2018-05-16T19:39:28.146Z,6.53
2018-05-16T19:41:56.497Z,6.03
2018-05-16T19:44:24.800Z,7.10
2018-05-16T19:46:53.234Z,6.63
2018-05-16T19:49:21.492Z,6.70
2018-05-16T19:51:50.688Z,6.60
2018-05-16T19:54:19.051Z,8.23
2018-05-16T19:56:47.379Z,5.97
2018-05-16T19:59:16.420Z,5.80
2018-05-16T20:01:44.749Z,6.60
2018-05-16T20:04:13.114Z,6.80
2018-05-16T20:06:41.425Z,7.93
2018-05-16T20:09:09.717Z,6.00
2018-05-16T20:11:38.011Z,7.27
2018-05-16T20:14:06.298Z,7.40
2018-05-16T20:16:35.353Z,6.57
2018-05-16T20:19:03.675Z,7.83
2018-05-16T20:21:32.154Z,6.90
2018-05-16T20:24:00.434Z,7.10
2018-05-16T20:26:28.766Z,6.80
2018-05-16T20:28:57.027Z,7.07
2018-05-16T20:31:25.326Z,6.50
2018-05-16T20:33:53.620Z,7.13
2018-05-16T20:36:21.941Z,6.47
2018-05-16T20:38:50.947Z,7.00
2018-05-16T20:41:19.254Z,6.90
2018-05-16T20:43:48.425Z,6.67
2018-05-16T20:46:16.706Z,7.00
2018-05-16T20:48:44.989Z,7.37
2018-05-16T20:51:13.259Z,6.63
2018-05-16T20:53:41.522Z,7.33
2018-05-16T20:56:09.799Z,7.80
2018-05-16T20:58:38.077Z,8.07
2018-05-16T21:01:06.412Z,7.20
2018-05-16T21:03:34.699Z,6.53
2018-05-16T21:06:02.989Z,8.00
2018-05-16T21:08:31.262Z,7.20
2018-05-16T21:10:59.553Z,6.40
2018-05-16T21:13:27.867Z,7.20
2018-05-16T21:15:56.169Z,9.03
2018-05-16T21:18:24.454Z,8.83
2018-05-16T21:20:52.727Z,7.37
2018-05-16T21:23:21.042Z,7.37
2018-05-16T21:25:49.327Z,7.20
2018-05-16T21:28:17.617Z,7.57
2018-05-16T21:30:46.657Z,7.00
2018-05-16T21:33:14.958Z,8.67
2018-05-16T21:35:43.195Z,7.67
2018-05-16T21:38:11.538Z,9.07
2018-05-16T21:40:40.554Z,7.53
2018-05-16T21:43:08.828Z,8.70
2018-05-16T21:45:37.945Z,6.67
2018-05-16T21:48:06.210Z,9.03
2018-05-16T21:50:34.518Z,7.80
2018-05-16T21:53:02.783Z,7.63
2018-05-16T21:55:31.060Z,7.57
2018-05-16T21:57:59.333Z,6.93
2018-05-16T22:00:27.625Z,7.73
2018-05-16T22:02:56.102Z,8.17
2018-05-16T22:05:24.391Z,8.03
2018-05-16T22:07:52.771Z,8.03
2018-05-16T22:10:21.051Z,6.63
2018-05-16T22:12:49.295Z,8.20
2018-05-16T22:15:17.580Z,7.30
2018-05-16T22:17:45.854Z,8.60
2018-05-16T22:20:14.148Z,7.23
2018-05-16T22:22:42.563Z,8.00
2018-05-16T22:25:11.058Z,7.67
2018-05-16T22:27:39.314Z,7.27
2018-05-16T22:30:07.618Z,6.50
2018-05-16T22:32:35.919Z,8.50
2018-05-16T22:35:04.230Z,7.10
2018-05-16T22:37:33.253Z,7.63
2018-05-16T22:40:01.545Z,5.77
2018-05-16T22:42:29.884Z,5.60
2018-05-16T22:44:58.272Z,6.80
2018-05-16T22:47:26.558Z,6.30
2018-05-16T22:49:54.815Z,7.17
2018-05-16T22:52:23.115Z,7.70
2018-05-16T22:54:51.380Z,6.90
2018-05-16T22:57:19.746Z,7.40
2018-05-16T22:59:48.033Z,6.83
2018-05-16T23:02:16.301Z,6.10
2018-05-16T23:04:44.592Z,6.63
2018-05-16T23:07:12.834Z,7.73
2018-05-16T23:09:41.131Z,6.30
2018-05-16T23:12:09.425Z,6.63
2018-05-16T23:14:37.708Z,5.80
2018-05-16T23:17:05.965Z,6.73
2018-05-16T23:19:34.263Z,5.73
2018-05-16T23:22:02.547Z,5.60
2018-05-16T23:24:30.811Z,5.67
2018-05-16T23:26:59.070Z,5.47
2018-05-16T23:29:27.368Z,5.57
2018-05-16T23:31:55.791Z,5.03
2018-05-16T23:34:24.815Z,5.03
2018-05-16T23:36:53.129Z,5.40
2018-05-16T23:39:21.418Z,5.80
2018-05-16T23:41:49.717Z,4.27
2018-05-16T23:44:18.105Z,5.93
2018-05-16T23:46:46.397Z,6.57
2018-05-16T23:49:14.678Z,5.43
2018-05-16T23:51:42.954Z,4.67
2018-05-16T23:54:11.885Z,4.63
2018-05-16T23:56:40.917Z,4.87
2018-05-16T23:59:09.183Z,4.63
